Time;durP1;ratioP1;P1;durP2;ratioP2;P2;SDS_P1;SDS_P2;PMS_P1;PMS_P2;Temp;Humidity;BMP_temperature;BMP_pressure;BME280_temperature;BME280_humidity;BME280_pressure;Samples;Min_cycle;Max_cycle;Signal;HPM_P1;HPM_P2
2023/07/07 00:01:57;;;;;;;5.10;4.33;;;;;;;17.58;76.14;98379.22;4154046;28;20633;-83
2023/07/07 00:04:02;;;;;;;4.90;4.30;;;;;;;17.48;75.13;98375.78;4152626;28;20702;-84
2023/07/07 00:06:05;;;;;;;5.17;4.17;;;;;;;17.37;76.09;98375.09;4146593;28;21052;-83
2023/07/07 00:08:07;;;;;;;5.10;4.03;;;;;;;17.30;78.10;98367.88;4156431;28;20710;-84
2023/07/07 00:10:10;;;;;;;6.10;4.30;;;;;;;17.26;77.07;98377.03;4153012;28;20743;-84
2023/07/07 00:12:16;;;;;;;6.83;4.60;;;;;;;17.22;76.81;98370.38;4148927;28;21012;-84
2023/07/07 00:14:19;;;;;;;7.63;4.27;;;;;;;17.20;76.68;98369.63;4135634;28;20721;-81
2023/07/07 00:16:27;;;;;;;5.87;4.33;;;;;;;17.19;77.93;98365.34;4128817;28;20730;-81
2023/07/07 00:18:31;;;;;;;4.70;4.27;;;;;;;17.18;77.15;98367.13;4142421;28;21270;-81
2023/07/07 00:20:36;;;;;;;5.83;4.40;;;;;;;17.19;78.18;98370.63;4149659;28;20681;-80
2023/07/07 00:22:40;;;;;;;6.07;4.70;;;;;;;17.19;77.15;98379.34;4132935;28;20656;-80
2023/07/07 00:24:44;;;;;;;4.50;3.67;;;;;;;17.19;77.97;98376.72;4136503;28;20652;-81
2023/07/07 00:26:48;;;;;;;6.17;4.50;;;;;;;17.20;77.92;98372.28;4152808;28;20646;-81
2023/07/07 00:28:51;;;;;;;5.23;3.80;;;;;;;17.19;77.48;98376.72;4151892;28;20633;-81
2023/07/07 00:30:55;;;;;;;4.60;3.83;;;;;;;17.18;78.70;98374.22;4127834;28;21222;-80
2023/07/07 00:32:58;;;;;;;6.60;4.23;;;;;;;17.16;77.69;98377.00;4149977;28;20664;-81
2023/07/07 00:35:02;;;;;;;6.63;4.90;;;;;;;17.12;77.61;98380.03;4114444;28;21219;-80
2023/07/07 00:37:07;;;;;;;5.73;4.80;;;;;;;17.10;77.78;98371.44;4126253;28;20716;-81
2023/07/07 00:39:10;;;;;;;4.80;4.07;;;;;;;17.08;77.26;98381.31;4092480;28;20700;-81
2023/07/07 00:41:13;;;;;;;6.07;4.60;;;;;;;17.07;78.75;98377.00;4138279;28;21629;-81
2023/07/07 00:43:18;;;;;;;5.53;4.00;;;;;;;17.04;78.16;98374.63;4088229;28;20661;-81
2023/07/07 00:45:22;;;;;;;5.83;4.37;;;;;;;17.00;79.04;98375.88;4150767;28;20660;-79
2023/07/07 00:47:25;;;;;;;5.90;4.30;;;;;;;16.98;77.14;98383.09;4154194;28;20635;-79
2023/07/07 00:49:28;;;;;;;7.03;4.20;;;;;;;16.95;79.53;98387.81;4149881;28;20728;-79
2023/07/07 00:51:34;;;;;;;4.87;4.00;;;;;;;16.91;78.58;98389.88;4134053;28;20634;-79
2023/07/07 00:53:39;;;;;;;5.03;3.93;;;;;;;16.89;79.48;98386.53;4124139;28;20763;-79
2023/07/07 00:55:44;;;;;;;5.07;4.00;;;;;;;16.87;77.89;98385.84;4108429;28;21029;-80
2023/07/07 00:57:48;;;;;;;5.80;4.40;;;;;;;16.86;77.82;98388.63;4127500;28;21194;-79
2023/07/07 00:59:50;;;;;;;5.60;4.00;;;;;;;16.87;77.90;98383.22;4113690;28;20988;-79
2023/07/07 01:01:56;;;;;;;6.47;4.10;;;;;;;16.88;77.08;98391.94;4142229;28;20634;-79
2023/07/07 01:04:01;;;;;;;4.57;3.73;;;;;;;16.89;77.83;98391.81;4156622;28;20676;-79
2023/07/07 01:06:07;;;;;;;5.90;3.93;;;;;;;16.86;77.58;98393.91;4142840;28;20698;-79
2023/07/07 01:08:10;;;;;;;7.10;4.30;;;;;;;16.81;77.56;98396.94;4126221;28;20715;-79
2023/07/07 01:10:15;;;;;;;5.80;4.17;;;;;;;16.80;78.65;98389.16;4138804;28;20637;-79
2023/07/07 01:12:18;;;;;;;4.73;3.77;;;;;;;16.78;77.16;98391.94;4114353;28;20747;-79
2023/07/07 01:14:26;;;;;;;5.60;4.10;;;;;;;16.78;78.56;98397.22;4116739;28;20738;-79
2023/07/07 01:16:36;;;;;;;5.00;3.70;;;;;;;16.76;80.04;98396.50;4160462;28;20635;-79
2023/07/07 01:18:44;;;;;;;5.93;4.20;;;;;;;16.69;78.88;98405.91;4128175;28;21006;-79
2023/07/07 01:21:01;;;;;;;5.43;4.07;;;;;;;16.62;79.42;98398.69;4128415;28;20632;-79
2023/07/07 01:23:43;;;;;;;6.80;4.40;;;;;;;16.61;79.27;98400.50;4156989;28;20630;-79
2023/07/07 01:26:01;;;;;;;5.40;4.27;;;;;;;16.60;78.89;98392.72;4153646;28;21545;-79
2023/07/07 01:28:37;;;;;;;6.10;4.20;;;;;;;16.55;79.02;98390.50;4121263;28;21420;-79
2023/07/07 01:30:45;;;;;;;6.03;4.37;;;;;;;16.51;80.65;98394.34;4133045;28;20677;-79
2023/07/07 01:32:49;;;;;;;5.20;4.30;;;;;;;16.50;78.46;98398.94;4158545;28;20652;-79
2023/07/07 01:34:55;;;;;;;5.60;3.90;;;;;;;16.49;79.55;98402.50;4153452;28;22695;-79
2023/07/07 01:36:58;;;;;;;5.10;4.27;;;;;;;16.50;79.81;98396.28;4139792;28;21105;-79
2023/07/07 01:39:03;;;;;;;5.43;3.83;;;;;;;16.50;78.79;98396.28;4149759;28;20662;-79
2023/07/07 01:41:15;;;;;;;5.07;3.77;;;;;;;16.49;77.99;98398.06;4126401;28;20678;-79
2023/07/07 01:43:24;;;;;;;4.47;3.70;;;;;;;16.45;79.53;98394.06;4112627;28;20625;-79
2023/07/07 01:45:31;;;;;;;4.70;3.90;;;;;;;16.41;80.67;98397.09;4084587;28;24115;-80
2023/07/07 01:47:38;;;;;;;4.90;3.87;;;;;;;16.33;78.70;98397.75;4133117;28;20634;-79
2023/07/07 01:49:47;;;;;;;4.83;3.80;;;;;;;16.28;80.80;98399.09;4118869;28;20647;-79
2023/07/07 01:51:55;;;;;;;5.10;3.90;;;;;;;16.27;81.00;98386.94;4115637;28;20638;-79
2023/07/07 01:53:59;;;;;;;6.03;4.70;;;;;;;16.26;79.02;98399.22;4125740;28;20735;-80
2023/07/07 01:56:05;;;;;;;6.47;4.30;;;;;;;16.23;80.39;98398.66;4124199;28;24144;-79
2023/07/07 01:58:09;;;;;;;6.27;4.50;;;;;;;16.21;79.31;98401.41;4158519;28;20637;-80
2023/07/07 02:00:15;;;;;;;4.90;4.13;;;;;;;16.21;80.05;98390.88;4153630;28;20623;-80
2023/07/07 02:02:21;;;;;;;5.83;3.90;;;;;;;16.20;80.34;98398.91;4137090;28;20632;-80
2023/07/07 02:04:26;;;;;;;7.07;4.60;;;;;;;16.18;79.56;98390.31;4128830;28;20669;-80
2023/07/07 02:06:29;;;;;;;4.53;4.10;;;;;;;16.12;80.11;98390.84;4140139;28;20667;-80
2023/07/07 02:08:32;;;;;;;6.50;3.93;;;;;;;16.10;80.92;98387.47;4150619;28;20644;-80
2023/07/07 02:10:35;;;;;;;5.27;4.10;;;;;;;16.10;79.75;98392.75;4100921;28;20626;-80
2023/07/07 02:12:40;;;;;;;6.63;5.03;;;;;;;16.10;79.88;98383.06;4133094;28;20735;-80
2023/07/07 02:14:43;;;;;;;5.47;4.10;;;;;;;16.11;79.62;98389.16;4106835;28;21033;-80
2023/07/07 02:16:49;;;;;;;5.23;4.00;;;;;;;16.09;79.58;98394.56;4102108;28;20892;-80
2023/07/07 02:18:53;;;;;;;4.60;3.60;;;;;;;15.99;80.73;98378.84;4087618;28;20630;-80
2023/07/07 02:20:57;;;;;;;6.43;4.50;;;;;;;15.93;79.46;98377.56;4111186;28;20637;-80
2023/07/07 02:23:01;;;;;;;5.20;4.17;;;;;;;15.89;79.32;98372.69;4104141;28;20631;-80
2023/07/07 02:25:06;;;;;;;8.07;4.70;;;;;;;15.81;81.79;98365.44;4106677;28;20760;-81
2023/07/07 02:27:10;;;;;;;5.20;3.83;;;;;;;15.79;79.79;98377.09;4127348;28;20664;-81
2023/07/07 02:29:13;;;;;;;6.10;3.90;;;;;;;15.75;80.88;98371.22;4124426;28;22210;-80
2023/07/07 02:31:16;;;;;;;5.00;3.80;;;;;;;15.76;81.12;98377.34;4109981;28;21228;-81
2023/07/07 02:33:19;;;;;;;6.47;5.10;;;;;;;15.77;81.22;98379.84;4111299;28;20761;-81
2023/07/07 02:35:22;;;;;;;5.70;4.30;;;;;;;15.77;81.19;98377.22;4111853;28;20697;-81
2023/07/07 02:37:27;;;;;;;4.93;4.00;;;;;;;15.81;81.36;98372.53;4075161;28;21280;-81
2023/07/07 02:39:32;;;;;;;5.53;4.00;;;;;;;15.81;81.48;98375.16;4089844;28;20637;-81
2023/07/07 02:41:35;;;;;;;5.77;4.53;;;;;;;15.78;80.46;98370.97;4139110;28;20956;-81
2023/07/07 02:43:41;;;;;;;4.13;3.63;;;;;;;15.76;82.24;98374.72;4149341;28;20650;-81
2023/07/07 02:45:44;;;;;;;5.00;4.00;;;;;;;15.73;80.53;98378.44;4103237;28;21061;-81
2023/07/07 02:47:48;;;;;;;6.53;4.00;;;;;;;15.72;82.11;98375.94;4096909;28;20643;-81
2023/07/07 02:49:52;;;;;;;5.40;4.37;;;;;;;15.70;80.67;98378.69;4131006;28;20622;-81
2023/07/07 02:51:55;;;;;;;6.23;4.03;;;;;;;15.69;82.05;98382.28;4162637;28;20695;-81
2023/07/07 02:54:00;;;;;;;5.77;4.27;;;;;;;15.67;82.45;98384.19;4115575;28;20642;-81
2023/07/07 02:56:04;;;;;;;5.33;4.20;;;;;;;15.65;81.39;98380.03;4130867;28;20617;-81
2023/07/07 02:58:07;;;;;;;4.70;3.90;;;;;;;15.61;81.34;98378.63;4153579;28;20639;-81
2023/07/07 03:00:13;;;;;;;5.03;4.30;;;;;;;15.61;82.60;98384.72;4133127;28;20636;-81
2023/07/07 03:02:16;;;;;;;6.30;4.23;;;;;;;15.60;80.83;98377.78;4126972;28;20631;-81
2023/07/07 03:04:20;;;;;;;5.03;4.43;;;;;;;15.57;82.45;98375.44;4099393;28;20670;-81
2023/07/07 03:06:23;;;;;;;6.97;4.23;;;;;;;15.57;82.40;98375.44;4152041;28;21118;-81
2023/07/07 03:08:28;;;;;;;4.70;4.00;;;;;;;15.58;81.88;98373.63;4140451;28;20639;-81
2023/07/07 03:10:33;;;;;;;6.00;4.20;;;;;;;15.58;82.02;98371.00;4114361;28;21211;-81
2023/07/07 03:12:37;;;;;;;6.57;4.27;;;;;;;15.59;80.75;98375.28;4138182;28;20662;-81
2023/07/07 03:14:41;;;;;;;5.47;4.53;;;;;;;15.57;82.28;98379.84;4119937;28;20661;-81
2023/07/07 03:16:46;;;;;;;4.83;4.23;;;;;;;15.51;82.67;98382.16;4111716;28;20624;-81
2023/07/07 03:18:56;;;;;;;5.33;4.30;;;;;;;15.48;82.65;98388.50;4166684;28;20626;-81
2023/07/07 03:21:00;;;;;;;6.20;4.57;;;;;;;15.46;82.41;98392.22;4133494;28;20637;-81
2023/07/07 03:23:04;;;;;;;12.57;4.70;;;;;;;15.43;82.93;98395.13;4142166;28;20648;-81
2023/07/07 03:25:09;;;;;;;5.67;4.13;;;;;;;15.42;81.57;98398.69;4138728;28;20711;-81
2023/07/07 03:27:19;;;;;;;7.73;4.60;;;;;;;15.41;80.87;98404.91;4125134;28;20662;-81
2023/07/07 03:29:24;;;;;;;7.03;4.60;;;;;;;15.39;83.19;98405.03;4156487;28;20630;-81
2023/07/07 03:31:29;;;;;;;5.93;4.20;;;;;;;15.40;82.21;98405.88;4132632;28;20668;-81
2023/07/07 03:33:33;;;;;;;7.07;5.23;;;;;;;15.40;82.23;98414.59;4154117;28;20724;-81
2023/07/07 03:35:38;;;;;;;5.00;4.30;;;;;;;15.37;81.63;98421.91;4099603;28;20643;-81
2023/07/07 03:37:42;;;;;;;7.03;4.03;;;;;;;15.27;82.43;98413.09;4144584;28;21010;-81
2023/07/07 03:39:45;;;;;;;4.87;4.20;;;;;;;15.19;82.13;98418.97;4088767;28;20666;-81
2023/07/07 03:41:49;;;;;;;5.80;4.30;;;;;;;15.18;82.23;98421.72;4119519;28;20633;-81
2023/07/07 03:43:55;;;;;;;6.80;4.80;;;;;;;15.18;81.98;98421.72;4147472;28;20651;-80
2023/07/07 03:45:59;;;;;;;9.40;4.60;;;;;;;15.16;82.38;98416.56;4132519;28;20649;-81
2023/07/07 03:48:03;;;;;;;7.40;4.43;;;;;;;15.12;81.71;98416.94;4127613;28;20700;-81
2023/07/07 03:50:08;;;;;;;6.10;4.80;;;;;;;15.07;82.47;98426.16;4115856;28;20634;-80
2023/07/07 03:52:14;;;;;;;5.60;4.30;;;;;;;15.02;81.88;98428.31;4137654;28;20629;-81
2023/07/07 03:54:18;;;;;;;6.57;4.40;;;;;;;14.97;82.70;98433.09;4153901;28;20680;-81
2023/07/07 03:56:21;;;;;;;6.60;4.30;;;;;;;14.93;83.23;98434.28;4136994;28;20740;-81
2023/07/07 03:58:26;;;;;;;6.67;4.70;;;;;;;14.93;83.69;98432.53;4152840;28;20669;-81
2023/07/07 04:00:30;;;;;;;8.30;5.00;;;;;;;14.94;83.07;98444.69;4150746;28;20678;-80
2023/07/07 04:02:35;;;;;;;5.10;4.23;;;;;;;14.98;82.79;98440.03;4135417;28;20638;-81
2023/07/07 04:04:38;;;;;;;7.60;4.90;;;;;;;15.06;83.43;98448.13;4137249;28;20662;-81
2023/07/07 04:06:42;;;;;;;6.03;4.90;;;;;;;15.11;84.43;98447.63;4122840;28;20648;-81
2023/07/07 04:08:45;;;;;;;7.77;5.50;;;;;;;15.19;83.84;98444.41;4158314;28;20680;-81
2023/07/07 04:10:58;;;;;;;7.43;5.37;;;;;;;15.24;82.64;98447.50;4140699;28;20638;-81
2023/07/07 04:13:02;;;;;;;6.00;5.20;;;;;;;15.27;82.20;98448.06;4125961;28;20625;-81
2023/07/07 04:15:07;;;;;;;6.60;4.50;;;;;;;15.26;83.29;98456.94;4111250;28;20656;-80
2023/07/07 04:17:12;;;;;;;5.70;4.73;;;;;;;15.24;82.19;98455.38;4096020;28;20962;-80
2023/07/07 04:19:15;;;;;;;6.50;5.03;;;;;;;15.28;82.83;98462.06;4135516;28;20699;-80
2023/07/07 04:21:20;;;;;;;6.83;5.00;;;;;;;15.33;83.98;98470.41;4133868;28;20634;-82
2023/07/07 04:23:23;;;;;;;6.20;4.90;;;;;;;15.36;83.92;98470.16;4155545;28;20644;-82
2023/07/07 04:25:27;;;;;;;6.47;4.97;;;;;;;15.41;83.71;98468.84;4144289;28;20640;-82
2023/07/07 04:27:30;;;;;;;7.30;5.27;;;;;;;15.46;81.81;98464.03;4111071;28;20671;-82
2023/07/07 04:29:34;;;;;;;6.17;5.10;;;;;;;15.55;82.03;98462.47;4096541;28;21188;-82
2023/07/07 04:31:37;;;;;;;6.30;5.00;;;;;;;15.60;83.21;98464.56;4090835;28;20731;-82
2023/07/07 04:33:42;;;;;;;7.73;5.50;;;;;;;15.69;82.97;98469.06;4106963;28;20684;-82
2023/07/07 04:35:45;;;;;;;7.63;5.87;;;;;;;15.76;82.12;98475.50;4147211;28;20751;-82
2023/07/07 04:37:48;;;;;;;6.97;5.17;;;;;;;15.83;81.29;98481.06;4131828;28;20629;-82
2023/07/07 04:39:52;;;;;;;5.47;4.80;;;;;;;15.86;82.57;98478.19;4138650;28;21204;-82
2023/07/07 04:41:55;;;;;;;7.57;6.20;;;;;;;15.91;83.27;98479.47;4142446;28;20993;-82
2023/07/07 04:43:59;;;;;;;10.10;6.00;;;;;;;15.95;82.99;98480.91;4096806;28;20654;-82
2023/07/07 04:46:04;;;;;;;10.17;6.50;;;;;;;16.03;80.90;98486.34;4144225;28;21205;-82
2023/07/07 04:48:09;;;;;;;13.63;7.53;;;;;;;16.08;80.97;98494.69;4078233;28;20668;-81
2023/07/07 04:50:14;;;;;;;7.73;5.27;;;;;;;16.14;82.75;98491.53;4097398;28;21210;-82
2023/07/07 04:52:18;;;;;;;6.90;5.40;;;;;;;16.19;81.75;98500.72;4134335;28;21271;-82
2023/07/07 04:54:22;;;;;;;7.17;5.07;;;;;;;16.24;85.50;98495.13;4112965;28;21216;-81
2023/07/07 04:56:25;;;;;;;6.37;4.57;;;;;;;16.25;84.57;98494.13;4130720;28;21072;-81
2023/07/07 04:58:30;;;;;;;8.10;5.60;;;;;;;16.29;83.96;98498.19;4136139;28;20634;-81
2023/07/07 05:00:33;;;;;;;16.83;8.60;;;;;;;16.37;94.19;98507.09;4121065;28;20694;-81
2023/07/07 05:02:36;;;;;;;7.43;5.03;;;;;;;16.34;88.86;98490.72;4105565;28;20643;-81
2023/07/07 05:04:40;;;;;;;6.60;4.77;;;;;;;16.30;84.65;98500.69;4082114;28;20679;-81
2023/07/07 05:06:44;;;;;;;6.90;5.10;;;;;;;16.36;86.08;98504.59;4076800;28;20757;-81
2023/07/07 05:08:48;;;;;;;7.93;4.97;;;;;;;16.40;85.63;98506.81;4093282;28;24447;-81
2023/07/07 05:10:51;;;;;;;8.93;6.03;;;;;;;16.47;87.07;98504.53;4089305;28;20635;-81
2023/07/07 05:12:55;;;;;;;9.13;6.37;;;;;;;16.54;88.11;98495.97;4106461;28;21069;-81
2023/07/07 05:14:58;;;;;;;7.30;5.30;;;;;;;16.60;85.63;98492.81;4112949;28;20640;-81
2023/07/07 05:17:03;;;;;;;7.47;6.67;;;;;;;16.69;87.29;98499.94;4132290;28;20678;-81
2023/07/07 05:19:08;;;;;;;7.37;5.57;;;;;;;16.76;83.21;98501.88;4105546;28;20631;-81
2023/07/07 05:21:12;;;;;;;6.57;5.30;;;;;;;16.78;81.78;98497.31;4131364;28;20645;-81
2023/07/07 05:23:18;;;;;;;7.23;5.27;;;;;;;16.85;83.74;98493.16;4124947;28;20643;-81
2023/07/07 05:25:21;;;;;;;7.73;5.50;;;;;;;16.94;83.31;98497.63;4093503;28;20670;-81
2023/07/07 05:27:25;;;;;;;6.17;5.10;;;;;;;17.04;83.38;98509.88;4079001;28;20627;-81
2023/07/07 05:29:28;;;;;;;6.53;5.17;;;;;;;17.18;84.60;98508.69;4088615;28;20647;-81
2023/07/07 05:31:32;;;;;;;7.23;5.40;;;;;;;17.29;84.46;98506.81;4088084;28;21045;-81
2023/07/07 05:33:38;;;;;;;6.13;5.07;;;;;;;17.41;82.65;98510.13;4145227;28;20810;-81
2023/07/07 05:35:47;;;;;;;5.57;4.83;;;;;;;17.52;82.19;98509.06;4099248;28;20659;-81
2023/07/07 05:37:51;;;;;;;5.90;4.80;;;;;;;17.68;83.24;98508.50;4087922;28;20644;-81
2023/07/07 05:39:56;;;;;;;7.13;5.33;;;;;;;17.80;82.03;98510.91;4072518;28;22988;-81
2023/07/07 05:41:59;;;;;;;8.40;5.70;;;;;;;17.95;82.09;98509.47;4076123;28;20646;-81
2023/07/07 05:44:03;;;;;;;6.93;5.10;;;;;;;18.11;80.17;98515.84;4113012;28;20659;-81
2023/07/07 05:46:08;;;;;;;5.90;4.30;;;;;;;18.33;77.84;98522.66;4121339;28;20646;-81
2023/07/07 05:48:13;;;;;;;7.07;4.60;;;;;;;18.64;76.89;98522.31;4140824;28;20703;-81
2023/07/07 05:50:16;;;;;;;5.80;4.73;;;;;;;18.91;73.96;98528.47;4150069;28;20669;-81
2023/07/07 05:52:21;;;;;;;6.90;4.60;;;;;;;19.20;73.71;98527.41;4138970;28;20682;-82
2023/07/07 05:54:25;;;;;;;5.73;4.57;;;;;;;19.55;72.66;98523.03;4111373;28;20636;-81
2023/07/07 05:56:30;;;;;;;6.13;4.77;;;;;;;19.93;72.02;98520.13;4143124;28;20633;-82
2023/07/07 05:58:34;;;;;;;7.40;5.00;;;;;;;20.28;71.04;98528.84;4157897;28;20663;-81
2023/07/07 06:00:37;;;;;;;7.63;4.60;;;;;;;20.64;71.24;98535.75;4133671;28;20640;-81
2023/07/07 06:02:41;;;;;;;5.30;4.43;;;;;;;20.96;70.28;98531.53;4132048;28;20759;-82
2023/07/07 06:04:45;;;;;;;5.83;3.80;;;;;;;21.23;67.33;98531.28;4080891;28;20673;-81
2023/07/07 06:06:48;;;;;;;7.10;4.67;;;;;;;21.55;67.11;98537.59;4142076;28;20729;-83
2023/07/07 06:08:51;;;;;;;5.20;4.50;;;;;;;21.82;67.84;98538.16;4092098;28;20665;-82
2023/07/07 06:10:54;;;;;;;6.53;4.80;;;;;;;22.10;67.48;98529.72;4131649;28;20640;-83
2023/07/07 06:13:01;;;;;;;4.80;3.87;;;;;;;22.36;65.34;98544.53;4094494;28;20860;-82
2023/07/07 06:15:05;;;;;;;5.20;3.97;;;;;;;22.55;64.21;98533.56;4130799;28;20634;-84
2023/07/07 06:17:08;;;;;;;6.10;4.30;;;;;;;22.81;63.50;98536.84;4150283;28;20624;-83
2023/07/07 06:19:11;;;;;;;4.90;3.67;;;;;;;22.99;63.66;98543.66;4131403;28;20620;-83
2023/07/07 06:21:14;;;;;;;4.73;4.07;;;;;;;23.19;62.73;98532.44;4143853;28;20743;-83
2023/07/07 06:23:17;;;;;;;7.23;3.83;;;;;;;23.48;63.26;98534.47;4119819;28;21095;-83
2023/07/07 06:25:20;;;;;;;5.50;3.93;;;;;;;23.74;63.13;98530.56;4127988;28;20660;-83
2023/07/07 06:27:23;;;;;;;6.50;4.60;;;;;;;23.99;64.49;98540.88;4150992;28;21075;-81
2023/07/07 06:29:29;;;;;;;5.83;4.00;;;;;;;24.20;62.03;98530.38;4164910;28;20751;-81
2023/07/07 06:31:35;;;;;;;4.57;3.77;;;;;;;24.39;60.42;98533.44;4143878;28;20754;-81
2023/07/07 06:33:38;;;;;;;4.53;3.67;;;;;;;24.58;60.28;98540.09;4145872;28;21236;-81
2023/07/07 06:35:43;;;;;;;4.70;3.77;;;;;;;24.78;61.08;98548.25;4149446;28;20984;-81
2023/07/07 06:37:47;;;;;;;4.83;3.70;;;;;;;24.94;62.40;98542.75;4150786;28;20639;-81
2023/07/07 06:39:50;;;;;;;4.90;3.70;;;;;;;25.13;62.29;98545.72;4143229;28;20627;-81
2023/07/07 06:41:54;;;;;;;4.30;3.70;;;;;;;25.28;59.04;98549.22;4132119;28;20635;-81
2023/07/07 06:44:00;;;;;;;5.10;4.03;;;;;;;25.45;57.47;98541.84;4132969;28;20644;-81
2023/07/07 06:46:04;;;;;;;4.27;3.63;;;;;;;25.68;59.00;98544.25;4148541;28;20660;-81
2023/07/07 06:48:09;;;;;;;5.97;3.83;;;;;;;25.82;57.23;98540.69;4160123;28;20639;-81
2023/07/07 06:50:18;;;;;;;5.30;4.10;;;;;;;26.02;57.16;98541.72;4150670;28;20752;-81
2023/07/07 06:52:22;;;;;;;5.30;4.07;;;;;;;26.12;57.05;98539.59;4154588;28;20638;-81
2023/07/07 06:54:25;;;;;;;5.20;4.00;;;;;;;26.34;57.95;98541.25;4144954;28;20649;-81
2023/07/07 06:56:28;;;;;;;4.93;4.20;;;;;;;26.56;59.07;98541.06;4154029;28;20648;-81
2023/07/07 06:58:33;;;;;;;6.10;3.97;;;;;;;26.73;59.04;98547.78;4139558;28;20651;-81
2023/07/07 07:00:36;;;;;;;5.27;4.50;;;;;;;26.83;58.02;98553.66;4146495;28;20638;-81
2023/07/07 07:02:41;;;;;;;4.93;4.00;;;;;;;27.00;57.95;98552.34;4125316;28;20662;-81
2023/07/07 07:04:45;;;;;;;5.87;3.93;;;;;;;27.17;57.74;98544.66;4150206;28;20679;-81
2023/07/07 07:06:48;;;;;;;3.67;3.30;;;;;;;27.31;55.73;98551.72;4148215;28;20665;-81
2023/07/07 07:08:51;;;;;;;5.00;3.93;;;;;;;27.46;55.17;98547.06;4139992;28;20659;-81
2023/07/07 07:10:55;;;;;;;4.27;3.70;;;;;;;27.57;54.65;98539.34;4154751;28;20693;-81
2023/07/07 07:12:59;;;;;;;5.57;4.17;;;;;;;27.70;55.19;98539.38;4158350;28;20719;-81
2023/07/07 07:15:02;;;;;;;5.40;4.30;;;;;;;27.89;56.49;98548.50;4142514;28;20654;-81
2023/07/07 07:17:06;;;;;;;4.43;3.57;;;;;;;28.00;54.79;98545.25;4153760;28;20643;-81
2023/07/07 07:19:10;;;;;;;6.20;4.67;;;;;;;28.07;54.74;98547.75;4167426;28;20630;-81
2023/07/07 07:21:13;;;;;;;5.60;4.10;;;;;;;28.24;57.16;98551.75;4142354;28;20640;-81
2023/07/07 07:23:17;;;;;;;5.10;4.50;;;;;;;28.34;54.50;98541.44;4152415;28;20642;-81
2023/07/07 07:25:20;;;;;;;4.33;3.87;;;;;;;28.44;55.05;98541.03;4151195;28;20649;-81
2023/07/07 07:27:23;;;;;;;4.87;3.67;;;;;;;28.56;55.60;98548.25;4148235;28;20629;-81
2023/07/07 07:29:26;;;;;;;5.40;3.50;;;;;;;28.70;54.05;98545.41;4159389;28;21092;-80
2023/07/07 07:31:30;;;;;;;4.90;3.70;;;;;;;28.82;52.81;98541.09;4148938;28;20635;-81
2023/07/07 07:33:33;;;;;;;4.23;3.57;;;;;;;28.94;52.30;98541.25;4150720;28;20635;-81
2023/07/07 07:35:38;;;;;;;3.87;3.30;;;;;;;29.05;55.15;98539.59;4149534;28;20675;-81
2023/07/07 07:37:41;;;;;;;4.90;3.77;;;;;;;29.18;53.36;98539.59;4142492;28;21052;-81
2023/07/07 07:39:45;;;;;;;5.20;3.73;;;;;;;29.27;52.29;98541.00;4151699;28;20640;-81
2023/07/07 07:41:49;;;;;;;4.67;3.40;;;;;;;29.37;53.39;98537.91;4151107;28;20729;-81
2023/07/07 07:43:52;;;;;;;4.80;3.50;;;;;;;29.36;51.66;98542.44;4128864;28;21225;-81
2023/07/07 07:45:56;;;;;;;5.07;4.20;;;;;;;29.44;53.02;98530.63;4163384;28;20633;-81
2023/07/07 07:47:59;;;;;;;4.57;3.73;;;;;;;29.62;53.41;98537.81;4149099;28;20668;-81
2023/07/07 07:50:03;;;;;;;5.43;3.80;;;;;;;29.72;53.74;98534.66;4143316;28;21333;-80
2023/07/07 07:52:08;;;;;;;3.87;3.13;;;;;;;29.93;54.77;98545.16;4138661;28;20632;-80
2023/07/07 07:54:13;;;;;;;5.20;3.60;;;;;;;30.13;52.77;98536.78;4119329;28;20792;-80
2023/07/07 07:56:16;;;;;;;5.83;4.90;;;;;;;30.27;52.58;98537.50;4142151;28;20740;-81
2023/07/07 07:58:19;;;;;;;5.67;3.53;;;;;;;30.43;53.26;98532.44;4140017;28;20645;-81
2023/07/07 08:00:22;;;;;;;4.63;3.43;;;;;;;30.56;51.80;98535.84;4127947;28;20626;-80
2023/07/07 08:02:26;;;;;;;5.73;3.97;;;;;;;30.61;51.74;98535.19;4142605;28;21239;-80
2023/07/07 08:04:29;;;;;;;5.43;4.10;;;;;;;30.75;52.76;98534.06;4121116;28;20682;-81
2023/07/07 08:06:33;;;;;;;4.13;3.50;;;;;;;30.95;53.39;98535.56;4132077;28;20661;-81
2023/07/07 08:08:37;;;;;;;4.47;3.47;;;;;;;31.18;53.46;98543.84;4148159;28;20636;-80
2023/07/07 08:10:40;;;;;;;7.97;4.43;;;;;;;31.32;52.71;98540.81;4134939;28;20654;-80
2023/07/07 08:12:44;;;;;;;5.67;3.70;;;;;;;31.46;51.88;98545.03;4134744;28;20649;-81
2023/07/07 08:14:47;;;;;;;5.77;4.00;;;;;;;31.52;50.54;98539.56;4161836;28;20655;-81
2023/07/07 08:16:51;;;;;;;5.27;3.97;;;;;;;31.63;51.26;98537.97;4165781;28;21200;-81
2023/07/07 08:18:54;;;;;;;5.00;3.50;;;;;;;31.71;51.47;98540.34;4139337;28;21030;-81
2023/07/07 08:20:57;;;;;;;5.90;3.63;;;;;;;31.83;50.92;98534.00;4148161;28;21216;-81
2023/07/07 08:23:01;;;;;;;5.60;3.63;;;;;;;31.92;49.62;98538.06;4141669;28;20634;-81
2023/07/07 08:25:06;;;;;;;6.23;3.87;;;;;;;31.90;51.31;98540.97;4135963;28;20645;-81
2023/07/07 08:27:11;;;;;;;4.90;3.60;;;;;;;32.04;51.38;98534.34;4119975;28;20701;-81
2023/07/07 08:29:17;;;;;;;4.57;3.47;;;;;;;32.19;50.17;98542.03;4134969;28;21222;-81
2023/07/07 08:31:23;;;;;;;4.73;3.60;;;;;;;32.25;52.24;98533.84;4150021;28;20634;-80
2023/07/07 08:33:26;;;;;;;4.60;3.70;;;;;;;32.34;51.07;98535.19;4155674;28;20817;-81
2023/07/07 08:35:29;;;;;;;5.13;3.43;;;;;;;32.44;51.14;98541.66;4140214;28;20670;-81
2023/07/07 08:37:34;;;;;;;6.63;4.23;;;;;;;32.52;48.63;98532.41;4140568;28;20669;-81
2023/07/07 08:39:38;;;;;;;4.97;3.73;;;;;;;32.56;50.32;98539.00;4151542;28;20622;-81
2023/07/07 08:41:47;;;;;;;4.60;3.40;;;;;;;32.54;48.66;98536.53;4148573;28;21343;-81
2023/07/07 08:43:50;;;;;;;5.20;4.00;;;;;;;32.57;49.49;98537.97;4152675;28;21197;-81
2023/07/07 08:46:15;;;;;;;4.80;3.47;;;;;;;32.55;48.42;98529.25;4148435;28;20645;-81
2023/07/07 08:48:24;;;;;;;4.60;3.50;;;;;;;32.56;47.31;98533.59;4131356;28;20614;-81
2023/07/07 08:50:34;;;;;;;4.83;4.00;;;;;;;32.66;46.86;98531.97;4153650;28;21258;-80
2023/07/07 08:52:44;;;;;;;4.97;3.77;;;;;;;32.76;48.82;98531.41;4144427;28;20657;-81
2023/07/07 08:54:52;;;;;;;5.97;4.33;;;;;;;32.78;47.93;98537.38;4135038;28;20648;-81
2023/07/07 08:57:00;;;;;;;6.70;4.20;;;;;;;32.84;46.67;98532.69;4152055;28;21216;-81
2023/07/07 08:59:14;;;;;;;4.40;3.40;;;;;;;32.81;48.18;98523.41;4147286;28;20706;-81
2023/07/07 09:01:26;;;;;;;4.90;3.83;;;;;;;32.76;47.34;98529.50;4148345;28;20642;-80
2023/07/07 09:03:41;;;;;;;5.20;3.70;;;;;;;32.86;47.81;98527.06;4141244;28;20668;-80
2023/07/07 09:05:51;;;;;;;5.37;3.40;;;;;;;32.90;47.65;98529.06;4150857;28;20744;-81
2023/07/07 09:08:03;;;;;;;5.53;4.00;;;;;;;32.91;47.12;98529.88;4150429;28;20636;-80
2023/07/07 09:10:20;;;;;;;8.70;7.03;;;;;;;32.97;45.94;98528.97;4154290;28;20664;-80
2023/07/07 09:12:31;;;;;;;5.13;4.03;;;;;;;32.95;46.60;98525.69;4153149;28;20661;-81
2023/07/07 09:14:35;;;;;;;6.90;4.13;;;;;;;32.96;46.14;98527.34;4151724;28;20633;-80
2023/07/07 09:16:38;;;;;;;6.60;4.67;;;;;;;32.98;46.29;98519.81;4148492;28;20684;-80
2023/07/07 09:18:47;;;;;;;7.13;5.80;;;;;;;33.01;48.04;98520.16;4133462;28;20703;-81
2023/07/07 09:20:53;;;;;;;5.80;4.30;;;;;;;33.14;46.99;98524.50;4127809;28;20641;-80
2023/07/07 09:22:59;;;;;;;9.03;7.10;;;;;;;33.12;49.33;98522.06;4150039;28;20671;-80
2023/07/07 09:25:06;;;;;;;6.67;3.80;;;;;;;33.19;46.56;98516.50;4151517;28;20621;-81
2023/07/07 09:27:13;;;;;;;5.60;4.17;;;;;;;33.15;45.72;98518.03;4149930;28;20820;-81
2023/07/07 09:29:21;;;;;;;5.57;3.87;;;;;;;33.12;46.49;98522.06;4148397;28;20660;-81
2023/07/07 09:31:28;;;;;;;5.43;3.87;;;;;;;33.10;45.38;98517.94;4152143;28;20656;-81
2023/07/07 09:33:31;;;;;;;5.60;4.50;;;;;;;33.07;44.69;98513.81;4132615;28;21186;-80
2023/07/07 09:35:37;;;;;;;5.67;3.90;;;;;;;32.98;44.77;98515.22;4149127;28;20633;-81
2023/07/07 09:37:44;;;;;;;4.97;3.87;;;;;;;32.84;44.55;98505.66;4145520;28;20642;-81
2023/07/07 09:39:59;;;;;;;5.33;3.63;;;;;;;32.94;45.47;98505.94;4149440;28;20646;-81
2023/07/07 09:42:11;;;;;;;5.53;3.80;;;;;;;32.96;45.05;98494.88;4159572;28;20668;-81
2023/07/07 09:44:27;;;;;;;6.57;4.10;;;;;;;33.00;45.63;98496.88;4162936;28;21294;-80
2023/07/07 09:46:35;;;;;;;6.10;4.00;;;;;;;32.90;43.95;98496.59;4151445;28;20724;-81
2023/07/07 09:48:45;;;;;;;5.80;4.00;;;;;;;32.84;44.47;98502.16;4129010;28;20626;-81
2023/07/07 09:50:54;;;;;;;6.63;4.67;;;;;;;32.77;44.46;98490.59;4150900;28;21103;-81